KHQM/HQM METAR and TAF weather

Enter ICAO airport designator
Station Type Date Time Source
KHQM METAR 2020/01/23 21:10 UTC NOAA

KHQM 232110Z AUTO 19014G23KT 3SM -RA BR SCT009 OVC013 11/11 A2990 RMK AO2 PK WND 20030/2100 P0002 T01110111 $


Station Type Date Time Source
KHQM Decoded METAR 2020/01/23 21:10 UTC NOAA

HOQUIAM BOWERMAN AIRPORT, WA, United States (KHQM) 46-58N 123-56W 7M
Jan 23, 2020 - 04:10 PM EST / 2020.01.23 2110 UTC
Wind: from the S (190 degrees) at 16 MPH (14 KT) gusting to 26 MPH (23 KT):0
Visibility: 3 mile(s):0
Sky conditions: overcast
Weather: light rain; mist
Precipitation last hour: 0.02 inches
Temperature: 52.0 F (11.1 C)
Dew Point: 52.0 F (11.1 C)
Relative Humidity: 100%
Pressure (altimeter): 29.9 in. Hg (1012 hPa)
ob: KHQM 232110Z AUTO 19014G23KT 3SM -RA BR SCT009 OVC013 11/11 A2990 RMK AO2 PK WND 20030/2100 P0002 T01110111
cycle: 21

Station Type Date Time Source
KHQM TAF 2020/01/23 18:24 UTC NOAA

TAF KHQM 231723Z 2318/2418 19020G32KT 5SM -RA BR OVC012
FM232100 17016G25KT 4SM -RA BR OVC007
FM240600 17012KT 6SM -SHRA BR OVC015

Example: see airport list